createdAt,value
2022-10-20T00:00:57.671Z,29.50
2022-10-20T00:03:26.108Z,31.20
2022-10-20T00:05:53.965Z,31.67
2022-10-20T00:08:22.009Z,30.77
2022-10-20T00:10:56.716Z,31.02
2022-10-20T00:13:25.093Z,31.23
2022-10-20T00:15:56.021Z,32.10
2022-10-20T00:18:24.670Z,33.28
2022-10-20T00:20:53.104Z,34.33
2022-10-20T00:23:21.561Z,33.63
2022-10-20T00:25:49.393Z,33.58
2022-10-20T00:28:17.137Z,35.05
2022-10-20T00:30:44.892Z,35.83
2022-10-20T00:33:14.266Z,34.50
2022-10-20T00:35:42.020Z,35.45
2022-10-20T00:38:09.802Z,34.90
2022-10-20T00:40:37.578Z,35.80
2022-10-20T00:43:05.375Z,35.63
2022-10-20T00:45:33.155Z,34.90
2022-10-20T00:48:06.251Z,35.65
2022-10-20T00:50:41.555Z,36.75
2022-10-20T00:53:09.871Z,37.30
2022-10-20T00:55:41.167Z,39.30
2022-10-20T00:58:09.427Z,37.35
2022-10-20T01:00:39.824Z,37.67
2022-10-20T01:03:13.782Z,38.13
2022-10-20T01:05:42.910Z,37.47
2022-10-20T01:08:10.699Z,38.92
2022-10-20T01:10:43.106Z,37.28
2022-10-20T01:13:16.884Z,36.47
2022-10-20T01:15:49.861Z,35.58
2022-10-20T01:18:25.278Z,38.22
2022-10-20T01:21:17.503Z,36.33
2022-10-20T01:24:06.785Z,35.42
2022-10-20T01:27:18.397Z,36.22
2022-10-20T01:29:50.249Z,36.47
2022-10-20T01:32:23.134Z,36.03
2022-10-20T01:35:00.142Z,34.30
2022-10-20T01:37:48.392Z,35.33
2022-10-20T01:40:22.898Z,33.97
2022-10-20T01:42:55.171Z,33.55
2022-10-20T01:45:26.649Z,33.72
2022-10-20T01:47:55.470Z,32.40
2022-10-20T01:50:24.586Z,33.10
2022-10-20T01:52:57.071Z,32.85
2022-10-20T01:55:25.052Z,32.47
2022-10-20T01:58:16.770Z,32.92
2022-10-20T02:00:45.556Z,33.90
2022-10-20T02:03:29.053Z,33.28
2022-10-20T02:06:12.275Z,33.67
2022-10-20T02:08:44.895Z,32.60
2022-10-20T02:11:20.988Z,32.92
2022-10-20T02:13:52.337Z,32.90
2022-10-20T02:16:24.708Z,32.33
2022-10-20T02:18:53.019Z,34.38
2022-10-20T02:21:20.808Z,34.22
2022-10-20T02:23:51.192Z,34.22
2022-10-20T02:26:21.298Z,35.10
2022-10-20T02:28:55.223Z,33.58
2022-10-20T02:31:24.006Z,35.33
2022-10-20T02:33:52.886Z,35.13
2022-10-20T02:36:22.586Z,34.40
2022-10-20T02:38:50.678Z,35.63
2022-10-20T02:41:18.414Z,36.97
2022-10-20T02:43:46.170Z,35.47
2022-10-20T02:46:16.878Z,36.22
2022-10-20T02:48:44.710Z,35.67
2022-10-20T02:51:13.211Z,36.22
2022-10-20T02:53:41.327Z,35.83
2022-10-20T02:56:09.107Z,36.05
2022-10-20T02:58:37.235Z,36.05
2022-10-20T03:01:05.527Z,36.15
2022-10-20T03:03:34.719Z,36.25
2022-10-20T03:06:08.890Z,35.40
2022-10-20T03:08:36.941Z,35.30
2022-10-20T03:11:04.774Z,34.65
2022-10-20T03:13:32.641Z,35.60
2022-10-20T03:16:00.534Z,33.35
2022-10-20T03:18:28.285Z,34.10
2022-10-20T03:20:57.532Z,34.30
2022-10-20T03:23:25.270Z,34.85
2022-10-20T03:25:53.035Z,33.85
2022-10-20T03:28:20.782Z,32.85
2022-10-20T03:30:49.191Z,32.25
2022-10-20T03:33:16.928Z,33.83
2022-10-20T03:35:44.670Z,32.58
2022-10-20T03:38:13.759Z,34.60
2022-10-20T03:40:41.494Z,33.88
2022-10-20T03:43:09.602Z,33.80
2022-10-20T03:45:37.766Z,35.25
2022-10-20T03:48:06.090Z,34.00
2022-10-20T03:50:33.860Z,34.15
2022-10-20T03:53:01.613Z,33.97
2022-10-20T03:55:30.721Z,33.75
2022-10-20T03:57:58.594Z,32.42
2022-10-20T04:00:26.394Z,33.40
2022-10-20T04:02:54.189Z,33.17
2022-10-20T04:05:22.497Z,34.13
2022-10-20T04:07:50.230Z,33.23
2022-10-20T04:10:18.449Z,33.33
2022-10-20T04:12:47.592Z,32.90
2022-10-20T04:15:15.560Z,33.10
2022-10-20T04:17:43.313Z,32.90
2022-10-20T04:20:11.893Z,34.95
2022-10-20T04:22:40.407Z,33.95
2022-10-20T04:25:08.831Z,33.22
2022-10-20T04:27:36.838Z,35.13
2022-10-20T04:30:07.152Z,34.80
2022-10-20T04:32:34.985Z,34.08
2022-10-20T04:35:02.822Z,35.08
2022-10-20T04:37:30.579Z,33.97
2022-10-20T04:39:58.519Z,33.33
2022-10-20T04:42:26.447Z,34.83
2022-10-20T04:44:54.250Z,34.33
2022-10-20T04:47:23.440Z,34.47
2022-10-20T04:49:51.812Z,34.92
2022-10-20T04:52:21.431Z,34.53
2022-10-20T04:54:49.312Z,35.05
2022-10-20T04:57:17.159Z,34.40
2022-10-20T04:59:44.897Z,34.00
2022-10-20T05:02:12.798Z,34.03
2022-10-20T05:04:42.035Z,33.22
2022-10-20T05:07:09.783Z,32.72
2022-10-20T05:09:37.594Z,33.72
2022-10-20T05:12:05.472Z,33.35
2022-10-20T05:14:33.315Z,34.38
2022-10-20T05:17:01.866Z,33.80
2022-10-20T05:19:30.210Z,34.25
2022-10-20T05:21:59.326Z,35.47
2022-10-20T05:24:29.956Z,35.20
2022-10-20T05:26:58.067Z,35.00
2022-10-20T05:29:25.811Z,33.97
2022-10-20T05:31:53.572Z,33.67
2022-10-20T05:34:21.331Z,34.53
2022-10-20T05:36:49.057Z,33.70
2022-10-20T05:39:18.155Z,31.90
2022-10-20T05:41:46.016Z,33.75
2022-10-20T05:44:14.111Z,31.88
2022-10-20T05:46:42.481Z,32.63
2022-10-20T05:49:14.649Z,33.10
2022-10-20T05:51:42.702Z,33.88
2022-10-20T05:54:12.817Z,34.20
2022-10-20T05:56:42.591Z,32.67
2022-10-20T05:59:11.264Z,34.07
2022-10-20T06:01:48.075Z,33.37
2022-10-20T06:04:17.519Z,30.98
2022-10-20T06:06:45.388Z,31.55
2022-10-20T06:09:13.606Z,32.13
2022-10-20T06:11:42.719Z,31.38
2022-10-20T06:14:11.070Z,31.08
2022-10-20T06:16:39.074Z,31.95
2022-10-20T06:19:07.755Z,31.65
2022-10-20T06:21:37.552Z,32.80
2022-10-20T06:24:07.198Z,31.77
2022-10-20T06:26:37.302Z,30.23
2022-10-20T06:29:08.506Z,29.67
2022-10-20T06:31:38.889Z,31.20
2022-10-20T06:34:07.888Z,29.77
2022-10-20T06:36:37.102Z,30.60
2022-10-20T06:39:06.647Z,31.58
2022-10-20T06:41:34.986Z,30.05
2022-10-20T06:44:02.814Z,29.83
2022-10-20T06:46:33.740Z,31.42
2022-10-20T06:49:03.535Z,29.25
2022-10-20T06:51:31.759Z,29.85
2022-10-20T06:54:00.747Z,29.80
2022-10-20T06:56:30.434Z,29.10
2022-10-20T06:58:59.371Z,28.98
2022-10-20T07:01:28.779Z,28.88
2022-10-20T07:04:00.011Z,28.50
2022-10-20T07:06:30.031Z,28.23
2022-10-20T07:08:58.899Z,30.27
2022-10-20T07:11:28.785Z,28.90
2022-10-20T07:13:56.982Z,27.87
2022-10-20T07:16:26.452Z,28.20
2022-10-20T07:18:54.395Z,29.13
2022-10-20T07:21:30.606Z,28.48
2022-10-20T07:24:03.277Z,28.10
2022-10-20T07:26:33.574Z,28.60
2022-10-20T07:29:02.978Z,28.40
2022-10-20T07:31:32.625Z,28.05
2022-10-20T07:34:12.983Z,27.13
2022-10-20T07:36:45.181Z,27.95
2022-10-20T07:39:14.277Z,25.75
2022-10-20T07:41:45.429Z,25.80
2022-10-20T07:44:13.214Z,26.38
2022-10-20T07:46:40.984Z,25.75
2022-10-20T07:49:42.361Z,25.35
2022-10-20T07:51:58.366Z,24.27
2022-10-20T07:54:26.311Z,24.00
2022-10-20T07:56:54.259Z,23.07
2022-10-20T07:59:22.067Z,21.73
2022-10-20T08:01:51.253Z,21.83
2022-10-20T08:04:21.311Z,22.50
2022-10-20T08:06:49.068Z,23.53
2022-10-20T08:09:18.238Z,22.00
2022-10-20T08:11:46.015Z,23.08
2022-10-20T08:14:13.808Z,21.70
2022-10-20T08:16:42.817Z,21.85
2022-10-20T08:20:13.141Z,22.02
2022-10-20T08:21:59.283Z,21.92
2022-10-20T08:24:28.403Z,21.90
2022-10-20T08:26:56.150Z,22.87
2022-10-20T08:29:23.927Z,21.27
2022-10-20T08:31:51.674Z,22.10
2022-10-20T08:34:19.415Z,21.83
2022-10-20T08:36:47.192Z,22.33
2022-10-20T08:39:14.982Z,20.63
2022-10-20T08:44:36.582Z,19.98
2022-10-20T08:47:06.776Z,20.23
2022-10-20T08:49:36.508Z,20.88
2022-10-20T08:52:04.580Z,20.98
2022-10-20T08:54:35.498Z,21.13
2022-10-20T08:57:15.965Z,19.98
2022-10-20T08:59:44.238Z,19.80
2022-10-20T09:02:17.778Z,20.23
2022-10-20T09:04:51.051Z,18.70
2022-10-20T09:07:26.262Z,19.13
2022-10-20T09:09:59.267Z,18.55
2022-10-20T09:12:31.101Z,17.57
2022-10-20T09:14:59.027Z,18.10
2022-10-20T09:17:26.934Z,18.23
2022-10-20T09:19:58.637Z,18.25
2022-10-20T09:22:33.315Z,19.02
2022-10-20T09:25:03.577Z,18.55
2022-10-20T09:27:35.560Z,18.85
2022-10-20T09:30:16.157Z,18.67
2022-10-20T09:32:47.008Z,18.27
2022-10-20T09:35:27.480Z,18.25
2022-10-20T09:38:00.507Z,17.30
2022-10-20T09:40:28.918Z,18.05
2022-10-20T09:43:02.240Z,17.48
2022-10-20T09:45:32.338Z,17.40
2022-10-20T09:48:04.236Z,16.45
2022-10-20T09:50:35.682Z,16.15
2022-10-20T09:53:06.962Z,17.05
2022-10-20T09:55:42.214Z,16.58
2022-10-20T09:58:21.913Z,15.70
2022-10-20T10:00:57.927Z,16.45
2022-10-20T10:03:26.865Z,16.73
2022-10-20T10:05:56.027Z,14.73
2022-10-20T10:08:26.240Z,14.20
2022-10-20T10:11:03.478Z,14.80
2022-10-20T10:13:40.392Z,14.55
2022-10-20T10:16:10.159Z,13.90
2022-10-20T10:18:39.304Z,14.25
2022-10-20T10:21:09.467Z,14.40
2022-10-20T10:23:41.056Z,14.50
2022-10-20T10:26:50.753Z,14.07
2022-10-20T10:29:25.323Z,14.35
2022-10-20T10:31:58.911Z,13.73
2022-10-20T10:34:49.245Z,13.52
2022-10-20T10:37:18.099Z,12.88
2022-10-20T10:39:45.969Z,12.45
2022-10-20T10:42:36.094Z,13.05
2022-10-20T10:45:18.763Z,11.32
2022-10-20T10:48:13.351Z,11.80
2022-10-20T10:50:48.745Z,11.45
2022-10-20T10:53:29.726Z,11.27
2022-10-20T10:58:48.007Z,11.30
2022-10-20T11:01:44.234Z,11.10
2022-10-20T11:04:34.327Z,11.82
2022-10-20T11:07:09.641Z,11.13
2022-10-20T11:09:45.174Z,10.68
2022-10-20T11:12:30.390Z,9.68
2022-10-20T11:15:07.423Z,9.75
2022-10-20T11:17:49.116Z,8.90
2022-10-20T11:20:25.683Z,12.00
2022-10-20T11:23:18.218Z,10.73
2022-10-20T11:25:53.215Z,9.15
2022-10-20T11:28:31.053Z,8.80
2022-10-20T11:31:00.356Z,9.02
2022-10-20T11:33:38.033Z,8.55
2022-10-20T11:36:13.918Z,8.60
2022-10-20T11:38:45.696Z,8.80
2022-10-20T11:41:19.045Z,8.50
2022-10-20T11:43:51.294Z,8.47
2022-10-20T11:46:23.035Z,8.23
2022-10-20T11:48:54.129Z,7.97
2022-10-20T11:52:01.658Z,8.02
2022-10-20T11:55:07.147Z,7.73
2022-10-20T11:57:46.768Z,8.13
2022-10-20T12:00:48.007Z,7.85
2022-10-20T12:03:47.714Z,7.95
2022-10-20T12:06:55.755Z,7.90
2022-10-20T12:09:53.218Z,8.02
2022-10-20T12:12:26.395Z,7.82
2022-10-20T12:14:57.871Z,7.30
2022-10-20T12:17:36.982Z,7.33
2022-10-20T12:21:01.372Z,7.57
2022-10-20T12:24:02.303Z,7.10
2022-10-20T12:26:56.331Z,7.05
2022-10-20T12:29:47.151Z,6.43
2022-10-20T12:32:39.349Z,6.95
2022-10-20T12:35:30.724Z,6.65
2022-10-20T12:38:01.427Z,6.40
2022-10-20T12:40:33.586Z,7.28
2022-10-20T12:43:01.872Z,7.43
2022-10-20T12:45:38.366Z,8.85
2022-10-20T12:48:09.421Z,7.57
2022-10-20T12:50:40.984Z,7.20
2022-10-20T12:53:15.065Z,7.17
2022-10-20T12:55:45.846Z,7.15
2022-10-20T12:58:26.216Z,6.70
2022-10-20T13:01:11.041Z,7.13
2022-10-20T13:03:46.664Z,7.03
2022-10-20T13:06:45.438Z,6.53
2022-10-20T13:09:21.919Z,7.25
2022-10-20T13:12:04.034Z,6.85
2022-10-20T13:14:37.494Z,6.40
2022-10-20T13:17:17.345Z,6.78
2022-10-20T13:19:48.371Z,6.53
2022-10-20T13:22:39.524Z,6.55
2022-10-20T13:25:20.644Z,6.25
2022-10-20T13:27:50.847Z,6.07
2022-10-20T13:30:23.037Z,6.50
2022-10-20T13:33:25.414Z,6.55
2022-10-20T13:35:54.337Z,6.50
2022-10-20T13:38:28.659Z,6.50
2022-10-20T13:41:03.750Z,6.80
2022-10-20T13:43:40.903Z,6.03
2022-10-20T13:46:30.783Z,7.20
2022-10-20T13:49:11.782Z,6.00
2022-10-20T13:51:44.231Z,6.78
2022-10-20T13:54:20.827Z,7.00
2022-10-20T13:56:49.263Z,6.68
2022-10-20T13:59:24.264Z,6.53
2022-10-20T14:01:54.094Z,6.53
2022-10-20T14:04:26.947Z,6.83
2022-10-20T14:06:54.835Z,6.93
2022-10-20T14:09:24.189Z,6.63
2022-10-20T14:11:55.136Z,6.28
2022-10-20T14:14:27.100Z,6.72
2022-10-20T14:16:58.583Z,7.70
2022-10-20T14:19:27.946Z,7.20
2022-10-20T14:21:57.535Z,8.75
2022-10-20T14:24:32.466Z,7.03
2022-10-20T14:27:02.740Z,6.85
2022-10-20T14:29:34.603Z,7.13
2022-10-20T14:32:02.797Z,7.72
2022-10-20T14:34:34.151Z,7.28
2022-10-20T14:37:02.497Z,6.57
2022-10-20T14:39:36.928Z,7.47
2022-10-20T14:42:07.273Z,7.18
2022-10-20T14:44:36.474Z,7.97
2022-10-20T14:47:07.379Z,7.55
2022-10-20T14:49:39.557Z,7.97
2022-10-20T14:52:22.062Z,7.40
2022-10-20T14:54:51.546Z,7.50
2022-10-20T14:57:39.646Z,7.68
2022-10-20T15:00:30.809Z,8.20
2022-10-20T15:03:03.009Z,7.57
2022-10-20T15:05:37.234Z,7.25
2022-10-20T15:08:28.379Z,7.35
2022-10-20T15:10:56.809Z,7.75
2022-10-20T15:13:28.464Z,8.07
2022-10-20T15:15:58.793Z,8.18
2022-10-20T15:18:27.958Z,8.32
2022-10-20T15:20:56.712Z,8.18
2022-10-20T15:23:26.786Z,8.40
2022-10-20T15:25:58.443Z,8.15
2022-10-20T15:28:35.272Z,9.07
2022-10-20T15:31:06.835Z,10.90
2022-10-20T15:33:34.998Z,9.45
2022-10-20T15:36:02.794Z,9.65
2022-10-20T15:38:31.086Z,9.20
2022-10-20T15:43:34.077Z,9.30
2022-10-20T15:46:01.920Z,9.27
2022-10-20T15:48:31.053Z,9.13
2022-10-20T15:50:59.219Z,9.10
2022-10-20T15:53:27.080Z,9.10
2022-10-20T15:55:54.858Z,9.65
2022-10-20T15:58:22.706Z,9.38
2022-10-20T16:00:50.476Z,9.63
2022-10-20T16:03:19.652Z,10.00
2022-10-20T16:05:48.771Z,8.95
2022-10-20T16:08:16.885Z,9.55
2022-10-20T16:10:45.425Z,9.45
2022-10-20T16:13:13.315Z,9.05
2022-10-20T16:15:41.061Z,10.38
2022-10-20T16:18:09.937Z,11.07
2022-10-20T16:20:38.142Z,9.60
2022-10-20T16:23:07.269Z,9.30
2022-10-20T16:25:35.137Z,9.60
2022-10-20T16:28:02.923Z,9.38
2022-10-20T16:30:30.703Z,9.80
2022-10-20T16:32:58.439Z,9.07
2022-10-20T16:35:26.250Z,10.00
2022-10-20T16:37:53.989Z,10.10
2022-10-20T16:40:23.100Z,9.95
2022-10-20T16:42:50.851Z,10.32
2022-10-20T16:45:18.750Z,9.90
2022-10-20T16:47:46.559Z,9.77
2022-10-20T16:50:14.317Z,10.40
2022-10-20T16:52:42.091Z,9.77
2022-10-20T16:55:10.419Z,9.93
2022-10-20T16:57:40.288Z,10.83
2022-10-20T17:00:09.859Z,10.88
2022-10-20T17:02:38.112Z,11.50
2022-10-20T17:05:09.151Z,10.20
2022-10-20T17:07:37.889Z,8.77
2022-10-20T17:10:06.949Z,9.30
2022-10-20T17:12:34.687Z,8.90
2022-10-20T17:15:03.896Z,8.90
2022-10-20T17:17:32.141Z,9.25
2022-10-20T17:19:59.891Z,9.52
2022-10-20T17:22:27.678Z,9.52
2022-10-20T17:24:55.467Z,9.80
2022-10-20T17:27:23.260Z,8.70
2022-10-20T17:29:51.000Z,7.82
2022-10-20T17:32:20.381Z,10.02
2022-10-20T17:34:48.137Z,10.35
2022-10-20T17:37:15.896Z,9.35
2022-10-20T17:39:43.834Z,10.23
2022-10-20T17:42:11.575Z,8.10
2022-10-20T17:44:39.359Z,8.77
2022-10-20T17:47:07.144Z,9.25
2022-10-20T17:49:36.245Z,8.85
2022-10-20T17:52:04.082Z,8.63
2022-10-20T17:54:31.823Z,8.77
2022-10-20T17:56:59.587Z,8.77
2022-10-20T17:59:27.515Z,8.38
2022-10-20T18:01:55.806Z,8.52
2022-10-20T18:04:23.612Z,9.02
2022-10-20T18:06:52.873Z,9.35
2022-10-20T18:09:21.118Z,9.15
2022-10-20T18:11:52.063Z,8.70
2022-10-20T18:14:20.346Z,9.27
2022-10-20T18:16:48.259Z,9.35
2022-10-20T18:19:18.204Z,9.60
2022-10-20T18:21:46.513Z,8.57
2022-10-20T18:24:17.422Z,8.73
2022-10-20T18:26:45.827Z,8.68
2022-10-20T18:29:15.110Z,8.85
2022-10-20T18:31:44.809Z,8.50
2022-10-20T18:34:15.064Z,9.27
2022-10-20T18:36:45.820Z,9.50
2022-10-20T18:39:16.250Z,8.82
2022-10-20T18:41:45.471Z,8.73
2022-10-20T18:44:15.290Z,9.68
2022-10-20T18:46:44.477Z,9.40
2022-10-20T18:49:14.388Z,9.80
2022-10-20T18:51:42.289Z,9.70
2022-10-20T18:54:10.545Z,9.52
2022-10-20T18:56:39.643Z,9.80
2022-10-20T18:59:10.181Z,9.38
2022-10-20T19:01:40.055Z,10.25
2022-10-20T19:04:09.474Z,9.60
2022-10-20T19:06:39.723Z,9.83
2022-10-20T19:09:09.996Z,11.00
2022-10-20T19:11:40.505Z,10.23
2022-10-20T19:14:10.459Z,10.27
2022-10-20T19:16:39.635Z,10.48
2022-10-20T19:19:08.750Z,10.03
2022-10-20T19:21:36.963Z,9.98
2022-10-20T19:24:07.567Z,9.93
2022-10-20T19:26:37.244Z,9.30
2022-10-20T19:29:08.541Z,9.73
2022-10-20T19:31:39.576Z,9.35
2022-10-20T19:34:09.808Z,9.27
2022-10-20T19:36:38.015Z,9.02
2022-10-20T19:39:06.879Z,9.95
2022-10-20T19:41:34.714Z,9.18
2022-10-20T19:44:03.158Z,9.37
2022-10-20T19:46:32.287Z,10.38
2022-10-20T19:49:00.620Z,10.38
2022-10-20T19:51:28.379Z,10.68
2022-10-20T19:53:56.820Z,9.77
2022-10-20T19:56:24.616Z,10.03
2022-10-20T19:58:52.436Z,9.63
2022-10-20T20:01:20.302Z,10.23
2022-10-20T20:03:49.553Z,9.75
2022-10-20T20:06:19.766Z,9.27
2022-10-20T20:08:49.732Z,9.82
2022-10-20T20:11:23.612Z,9.27
2022-10-20T20:13:51.681Z,9.27
2022-10-20T20:16:19.829Z,9.25
2022-10-20T20:18:49.291Z,9.10
2022-10-20T20:21:17.810Z,10.40
2022-10-20T20:24:00.733Z,10.30
2022-10-20T20:26:29.742Z,23.00
2022-10-20T20:28:58.160Z,19.77
2022-10-20T20:31:26.988Z,16.17
2022-10-20T20:33:57.514Z,17.30
2022-10-20T20:36:27.471Z,16.35
2022-10-20T20:38:57.557Z,13.68
2022-10-20T20:41:26.918Z,13.88
2022-10-20T20:43:55.054Z,13.27
2022-10-20T20:46:24.568Z,11.77
2022-10-20T20:48:52.459Z,11.20
2022-10-20T20:51:22.852Z,10.53
2022-10-20T20:53:50.620Z,9.93
2022-10-20T20:56:21.792Z,9.43
2022-10-20T20:58:54.920Z,10.15
2022-10-20T21:01:24.922Z,9.75
2022-10-20T21:03:54.416Z,9.35
2022-10-20T21:06:33.110Z,9.70
2022-10-20T21:09:01.505Z,9.60
2022-10-20T21:11:29.566Z,9.82
2022-10-20T21:13:58.815Z,9.50
2022-10-20T21:16:28.466Z,9.48
2022-10-20T21:18:58.132Z,9.40
2022-10-20T21:21:30.669Z,9.68
2022-10-20T21:23:59.314Z,9.20
2022-10-20T21:26:27.936Z,9.50
2022-10-20T21:28:56.030Z,8.82
2022-10-20T21:31:25.882Z,10.00
2022-10-20T21:33:55.744Z,9.70
2022-10-20T21:36:24.172Z,9.80
2022-10-20T21:38:53.857Z,10.20
2022-10-20T21:41:23.473Z,10.57
2022-10-20T21:43:53.286Z,11.18
2022-10-20T21:46:22.881Z,11.00
2022-10-20T21:48:52.546Z,11.20
2022-10-20T21:51:22.551Z,10.10
2022-10-20T21:53:50.598Z,10.13
2022-10-20T21:56:19.721Z,10.07
2022-10-20T21:58:47.448Z,11.75
2022-10-20T22:01:17.667Z,10.60
2022-10-20T22:03:46.791Z,10.73
2022-10-20T22:06:17.037Z,10.15
2022-10-20T22:08:46.829Z,10.65
2022-10-20T22:11:16.841Z,11.00
2022-10-20T22:13:46.185Z,11.45
2022-10-20T22:16:16.300Z,11.68
2022-10-20T22:18:44.134Z,11.27
2022-10-20T22:21:14.762Z,10.45
2022-10-20T22:23:43.455Z,10.77
2022-10-20T22:26:12.250Z,10.65
2022-10-20T22:28:41.339Z,11.27
2022-10-20T22:31:12.508Z,11.40
2022-10-20T22:33:42.299Z,11.35
2022-10-20T22:36:10.106Z,11.82
2022-10-20T22:38:37.833Z,11.57
2022-10-20T22:41:05.639Z,11.40
2022-10-20T22:43:33.622Z,11.20
2022-10-20T22:46:01.353Z,11.63
2022-10-20T22:48:30.575Z,11.77
2022-10-20T22:50:58.660Z,11.35
2022-10-20T22:53:26.828Z,11.25
2022-10-20T22:55:54.611Z,11.55
2022-10-20T22:58:23.516Z,11.20
2022-10-20T23:00:51.281Z,10.77
2022-10-20T23:03:19.106Z,12.07
2022-10-20T23:05:48.182Z,11.45
2022-10-20T23:08:15.938Z,10.95
2022-10-20T23:10:44.442Z,11.07
2022-10-20T23:13:12.182Z,11.25
2022-10-20T23:15:39.938Z,11.50
2022-10-20T23:18:07.663Z,11.07
2022-10-20T23:20:35.399Z,12.10
2022-10-20T23:23:04.504Z,10.80
2022-10-20T23:25:32.313Z,11.82
2022-10-20T23:28:00.079Z,11.07
2022-10-20T23:30:27.897Z,11.68
2022-10-20T23:32:55.938Z,10.82
2022-10-20T23:35:23.684Z,11.43
2022-10-20T23:37:51.525Z,10.97
2022-10-20T23:40:20.631Z,11.55
2022-10-20T23:42:48.378Z,10.73
2022-10-20T23:45:16.259Z,11.25
2022-10-20T23:47:44.506Z,10.80
2022-10-20T23:50:12.274Z,10.73
2022-10-20T23:52:40.161Z,11.02
2022-10-20T23:55:11.880Z,11.33
2022-10-20T23:57:43.775Z,11.13
